createdAt,value
2022-07-26T00:00:08.890Z,77.14
2022-07-26T00:02:56.651Z,77.14
2022-07-26T00:05:24.678Z,77.29
2022-07-26T00:08:10.745Z,77.45
2022-07-26T00:10:48.953Z,77.47
2022-07-26T00:13:18.738Z,77.69
2022-07-26T00:15:49.383Z,77.81
2022-07-26T00:18:18.689Z,77.63
2022-07-26T00:20:48.271Z,77.47
2022-07-26T00:23:19.467Z,77.38
2022-07-26T00:25:47.592Z,77.31
2022-07-26T00:28:15.399Z,77.33
2022-07-26T00:30:43.501Z,77.34
2022-07-26T00:33:11.280Z,77.21
2022-07-26T00:35:39.103Z,77.16
2022-07-26T00:38:07.250Z,77.11
2022-07-26T00:40:36.026Z,77.13
2022-07-26T00:43:04.418Z,77.21
2022-07-26T00:45:32.363Z,77.02
2022-07-26T00:48:00.119Z,76.71
2022-07-26T00:50:27.918Z,76.84
2022-07-26T00:52:56.159Z,76.91
2022-07-26T00:55:24.077Z,76.95
2022-07-26T00:57:51.978Z,77.01
2022-07-26T01:00:23.920Z,77.04
2022-07-26T01:02:51.737Z,77.07
2022-07-26T01:05:19.583Z,77.00
2022-07-26T01:07:48.573Z,76.79
2022-07-26T01:10:16.968Z,76.57
2022-07-26T01:12:45.614Z,76.66
2022-07-26T01:15:15.865Z,76.94
2022-07-26T01:17:43.683Z,76.90
2022-07-26T01:20:13.793Z,76.99
2022-07-26T01:22:42.023Z,77.05
2022-07-26T01:25:10.159Z,77.06
2022-07-26T01:27:40.854Z,76.98
2022-07-26T01:30:11.160Z,76.99
2022-07-26T01:35:48.944Z,77.06
2022-07-26T01:38:16.918Z,77.23
2022-07-26T01:40:44.644Z,77.42
2022-07-26T01:43:12.589Z,77.46
2022-07-26T01:45:40.589Z,77.44
2022-07-26T01:48:08.704Z,77.71
2022-07-26T01:50:37.124Z,77.62
2022-07-26T01:53:06.364Z,77.67
2022-07-26T01:55:35.255Z,77.64
2022-07-26T01:58:05.108Z,77.78
2022-07-26T02:00:33.572Z,77.95
2022-07-26T02:03:01.875Z,78.17
2022-07-26T02:05:29.914Z,78.27
2022-07-26T02:07:58.490Z,78.44
2022-07-26T02:10:48.045Z,78.63
2022-07-26T02:13:16.899Z,78.95
2022-07-26T02:15:44.754Z,79.03
2022-07-26T02:18:12.511Z,79.10
2022-07-26T02:20:40.410Z,79.12
2022-07-26T02:23:08.083Z,79.09
2022-07-26T02:25:35.831Z,79.00
2022-07-26T02:28:03.887Z,79.02
2022-07-26T02:30:31.597Z,78.96
2022-07-26T02:32:59.285Z,78.93
2022-07-26T02:35:27.399Z,78.92
2022-07-26T02:37:55.061Z,79.12
2022-07-26T02:40:22.822Z,79.21
2022-07-26T02:42:50.677Z,79.50
2022-07-26T02:45:18.527Z,79.65
2022-07-26T02:47:50.049Z,79.66
2022-07-26T02:50:22.436Z,79.80
2022-07-26T02:52:51.230Z,79.72
2022-07-26T02:55:21.766Z,79.59
2022-07-26T02:57:49.978Z,79.94
2022-07-26T03:00:21.032Z,79.88
2022-07-26T03:02:51.348Z,80.14
2022-07-26T03:05:19.797Z,80.29
2022-07-26T03:07:47.948Z,80.43
2022-07-26T03:10:16.005Z,80.27
2022-07-26T03:12:44.718Z,80.17
2022-07-26T03:15:12.792Z,80.07
2022-07-26T03:17:40.699Z,80.21
2022-07-26T03:20:09.125Z,80.18
2022-07-26T03:22:36.925Z,80.16
2022-07-26T03:25:05.255Z,80.04
2022-07-26T03:27:33.457Z,79.89
2022-07-26T03:30:01.147Z,79.88
2022-07-26T03:32:29.131Z,79.56
2022-07-26T03:34:56.820Z,79.04
2022-07-26T03:37:24.579Z,78.53
2022-07-26T03:39:52.507Z,78.08
2022-07-26T03:42:20.172Z,77.30
2022-07-26T03:44:47.909Z,76.59
2022-07-26T03:47:15.785Z,75.59
2022-07-26T03:49:43.523Z,75.20
2022-07-26T03:52:11.218Z,74.67
2022-07-26T03:54:39.103Z,73.79
2022-07-26T03:57:06.792Z,73.63
2022-07-26T03:59:34.678Z,73.55
2022-07-26T04:02:02.876Z,73.42
2022-07-26T04:04:30.668Z,73.07
2022-07-26T04:06:58.438Z,72.91
2022-07-26T04:09:31.306Z,72.62
2022-07-26T04:11:58.977Z,72.15
2022-07-26T04:14:26.704Z,71.67
2022-07-26T04:16:54.649Z,70.79
2022-07-26T04:19:22.453Z,70.18
2022-07-26T04:21:50.215Z,69.60
2022-07-26T04:24:18.106Z,68.93
2022-07-26T04:26:46.877Z,68.13
2022-07-26T04:29:15.341Z,67.65
2022-07-26T04:31:43.237Z,67.37
2022-07-26T04:34:11.272Z,67.13
2022-07-26T04:36:39.212Z,66.66
2022-07-26T04:39:07.063Z,66.40
2022-07-26T04:41:34.856Z,65.86
2022-07-26T04:44:02.533Z,65.30
2022-07-26T04:46:30.467Z,65.00
2022-07-26T04:48:58.367Z,64.55
2022-07-26T04:51:26.548Z,64.70
2022-07-26T04:53:54.627Z,64.71
2022-07-26T04:56:22.290Z,64.39
2022-07-26T04:58:50.063Z,64.15
2022-07-26T05:01:17.980Z,64.46
2022-07-26T05:03:45.870Z,64.00
2022-07-26T05:06:13.529Z,63.75
2022-07-26T05:08:43.349Z,63.11
2022-07-26T05:11:11.483Z,63.08
2022-07-26T05:13:39.240Z,62.63
2022-07-26T05:16:11.647Z,62.35
2022-07-26T05:18:45.824Z,61.60
2022-07-26T05:21:18.826Z,61.39
2022-07-26T05:23:47.104Z,61.44
2022-07-26T05:26:14.941Z,60.86
2022-07-26T05:28:43.084Z,61.14
2022-07-26T05:31:10.975Z,60.78
2022-07-26T05:33:38.728Z,60.67
2022-07-26T05:36:06.839Z,60.48
2022-07-26T05:38:34.727Z,59.95
2022-07-26T05:41:02.692Z,59.57
2022-07-26T05:43:41.080Z,59.04
2022-07-26T05:46:11.242Z,58.01
2022-07-26T05:48:39.939Z,57.63
2022-07-26T05:51:08.338Z,56.47
2022-07-26T05:53:36.118Z,55.67
2022-07-26T05:56:04.793Z,54.83
2022-07-26T05:58:32.584Z,54.55
2022-07-26T06:01:00.323Z,54.07
2022-07-26T06:03:28.584Z,53.92
2022-07-26T06:05:58.413Z,53.14
2022-07-26T06:08:27.162Z,52.75
2022-07-26T06:10:55.720Z,52.38
2022-07-26T06:13:23.756Z,52.29
2022-07-26T06:15:52.014Z,52.69
2022-07-26T06:18:20.042Z,52.22
2022-07-26T06:20:48.968Z,51.93
2022-07-26T06:23:16.951Z,50.91
2022-07-26T06:25:44.877Z,50.77
2022-07-26T06:28:12.751Z,50.73
2022-07-26T06:30:40.699Z,50.40
2022-07-26T06:33:09.635Z,49.99
2022-07-26T06:35:39.318Z,49.89
2022-07-26T06:38:08.061Z,49.61
2022-07-26T06:40:36.572Z,49.52
2022-07-26T06:43:05.238Z,49.25
2022-07-26T06:45:34.084Z,48.43
2022-07-26T06:48:02.192Z,48.38
2022-07-26T06:50:30.164Z,47.94
2022-07-26T06:52:58.058Z,47.44
2022-07-26T06:55:26.240Z,46.39
2022-07-26T06:57:54.273Z,47.18
2022-07-26T07:00:22.323Z,46.29
2022-07-26T07:02:50.639Z,45.94
2022-07-26T07:05:18.400Z,44.69
2022-07-26T07:07:46.169Z,44.21
2022-07-26T07:10:14.352Z,43.69
2022-07-26T07:12:45.089Z,42.02
2022-07-26T07:15:13.305Z,41.99
2022-07-26T07:17:41.258Z,40.62
2022-07-26T07:20:09.452Z,38.20
2022-07-26T07:22:37.309Z,35.72
2022-07-26T07:25:06.399Z,34.36
2022-07-26T07:27:34.437Z,31.56
2022-07-26T07:30:02.492Z,29.85
2022-07-26T07:32:32.278Z,27.62
2022-07-26T07:35:00.739Z,25.62
2022-07-26T07:37:28.685Z,24.21
2022-07-26T07:40:16.667Z,22.79
2022-07-26T07:42:45.437Z,22.16
2022-07-26T07:45:13.238Z,21.26
2022-07-26T07:47:41.145Z,20.03
2022-07-26T07:50:09.252Z,19.22
2022-07-26T07:52:37.045Z,18.26
2022-07-26T07:55:40.187Z,17.73
2022-07-26T07:57:53.217Z,17.11
2022-07-26T08:00:26.846Z,17.10
2022-07-26T08:02:55.466Z,17.33
2022-07-26T08:05:23.397Z,17.89
2022-07-26T08:07:52.554Z,18.83
2022-07-26T08:10:20.771Z,19.00
2022-07-26T08:12:51.325Z,20.45
2022-07-26T08:15:21.207Z,21.86
2022-07-26T08:17:53.901Z,22.18
2022-07-26T08:20:25.023Z,22.80
2022-07-26T08:22:53.507Z,23.39
2022-07-26T08:25:21.687Z,23.11
2022-07-26T08:28:03.091Z,23.98
2022-07-26T08:30:34.717Z,24.13
2022-07-26T08:33:02.802Z,24.31
2022-07-26T08:35:30.649Z,24.63
2022-07-26T08:37:58.981Z,23.92
2022-07-26T08:40:27.105Z,23.70
2022-07-26T08:42:56.765Z,24.03
2022-07-26T08:45:29.511Z,24.76
2022-07-26T08:50:47.930Z,23.15
2022-07-26T08:53:16.866Z,22.04
2022-07-26T08:56:05.841Z,20.91
2022-07-26T08:58:36.512Z,20.25
2022-07-26T09:01:15.414Z,19.79
2022-07-26T09:03:45.509Z,19.93
2022-07-26T09:06:19.124Z,19.80
2022-07-26T09:08:51.840Z,18.66
2022-07-26T09:11:28.583Z,18.15
2022-07-26T09:14:00.068Z,17.96
2022-07-26T09:16:28.977Z,16.91
2022-07-26T09:19:22.765Z,16.78
2022-07-26T09:21:51.964Z,16.42
2022-07-26T09:24:33.875Z,16.38
2022-07-26T09:27:04.609Z,16.66
2022-07-26T09:29:46.726Z,17.14
2022-07-26T09:32:20.401Z,17.29
2022-07-26T09:34:54.359Z,17.98
2022-07-26T09:37:37.493Z,19.13
2022-07-26T09:40:11.582Z,20.35
2022-07-26T09:42:58.046Z,19.10
2022-07-26T09:45:28.749Z,19.17
2022-07-26T09:47:56.600Z,19.14
2022-07-26T09:50:27.963Z,18.87
2022-07-26T09:53:03.709Z,19.68
2022-07-26T09:55:42.430Z,20.94
2022-07-26T09:58:17.547Z,21.14
2022-07-26T10:00:45.794Z,22.58
2022-07-26T10:03:14.428Z,23.42
2022-07-26T10:05:42.867Z,23.11
2022-07-26T10:08:12.368Z,23.26
2022-07-26T10:10:49.122Z,23.81
2022-07-26T10:13:17.390Z,23.56
2022-07-26T10:15:46.807Z,23.69
2022-07-26T10:18:36.594Z,24.14
2022-07-26T10:21:23.682Z,23.82
2022-07-26T10:23:52.955Z,23.87
2022-07-26T10:26:32.857Z,25.05
2022-07-26T10:29:20.532Z,24.93
2022-07-26T10:32:10.318Z,24.82
2022-07-26T10:34:40.219Z,25.38
2022-07-26T10:37:11.176Z,25.70
2022-07-26T10:39:40.013Z,25.94
2022-07-26T10:42:10.056Z,26.49
2022-07-26T10:44:44.712Z,27.16
2022-07-26T10:47:15.950Z,27.48
2022-07-26T10:49:58.446Z,27.92
2022-07-26T10:52:28.970Z,28.99
2022-07-26T10:55:06.155Z,28.41
2022-07-26T10:57:42.254Z,29.12
2022-07-26T11:00:20.017Z,29.03
2022-07-26T11:02:55.592Z,29.88
2022-07-26T11:05:29.993Z,30.24
2022-07-26T11:07:57.768Z,30.56
2022-07-26T11:10:31.585Z,30.80
2022-07-26T11:13:11.314Z,31.01
2022-07-26T11:15:42.124Z,30.58
2022-07-26T11:18:25.173Z,30.91
2022-07-26T11:20:55.008Z,31.47
2022-07-26T11:23:24.668Z,31.94
2022-07-26T11:26:03.995Z,32.35
2022-07-26T11:28:48.019Z,32.57
2022-07-26T11:31:16.949Z,32.28
2022-07-26T11:33:51.044Z,32.60
2022-07-26T11:36:42.689Z,32.74
2022-07-26T11:39:16.178Z,32.99
2022-07-26T11:41:44.543Z,33.71
2022-07-26T11:44:17.173Z,33.95
2022-07-26T11:46:49.863Z,34.33
2022-07-26T11:49:22.926Z,34.42
2022-07-26T11:51:56.802Z,35.30
2022-07-26T11:54:27.650Z,35.31
2022-07-26T11:57:00.430Z,35.30
2022-07-26T11:59:34.036Z,35.05
2022-07-26T12:02:03.400Z,35.34
2022-07-26T12:04:34.360Z,35.28
2022-07-26T12:07:10.381Z,35.17
2022-07-26T12:09:46.966Z,35.07
2022-07-26T12:12:33.340Z,35.66
2022-07-26T12:15:08.244Z,36.68
2022-07-26T12:17:36.151Z,37.21
2022-07-26T12:20:18.239Z,37.81
2022-07-26T12:23:06.174Z,37.81
2022-07-26T12:25:37.442Z,38.68
2022-07-26T12:28:12.726Z,39.04
2022-07-26T12:30:41.219Z,39.72
2022-07-26T12:33:09.035Z,40.27
2022-07-26T12:35:36.819Z,41.07
2022-07-26T12:38:04.771Z,41.28
2022-07-26T12:40:41.507Z,41.50
2022-07-26T12:43:10.081Z,42.23
2022-07-26T12:45:38.590Z,42.64
2022-07-26T12:48:12.735Z,43.00
2022-07-26T12:50:40.844Z,43.82
2022-07-26T12:53:09.533Z,44.35
2022-07-26T12:55:41.141Z,44.82
2022-07-26T12:58:09.240Z,44.99
2022-07-26T13:00:39.367Z,45.86
2022-07-26T13:03:07.304Z,46.92
2022-07-26T13:05:35.084Z,47.99
2022-07-26T13:08:02.822Z,49.63
2022-07-26T13:10:33.528Z,51.16
2022-07-26T13:13:02.166Z,52.71
2022-07-26T13:15:36.533Z,53.96
2022-07-26T13:18:09.036Z,56.02
2022-07-26T13:20:38.594Z,57.86
2022-07-26T13:23:11.750Z,58.85
2022-07-26T13:25:42.151Z,60.40
2022-07-26T13:28:11.223Z,61.78
2022-07-26T13:30:43.146Z,63.44
2022-07-26T13:33:11.703Z,66.93
2022-07-26T13:35:41.206Z,71.72
2022-07-26T13:38:09.266Z,74.97
2022-07-26T13:40:37.002Z,77.27
2022-07-26T13:43:05.586Z,79.81
2022-07-26T13:45:33.369Z,81.77
2022-07-26T13:48:01.160Z,83.31
2022-07-26T13:50:29.577Z,84.95
2022-07-26T13:52:57.592Z,86.72
2022-07-26T13:55:25.862Z,87.68
2022-07-26T13:57:56.911Z,88.44
2022-07-26T14:00:27.482Z,89.32
2022-07-26T14:03:00.227Z,90.12
2022-07-26T14:05:28.880Z,90.18
2022-07-26T14:07:57.065Z,90.75
2022-07-26T14:10:25.616Z,91.61
2022-07-26T14:12:53.811Z,92.21
2022-07-26T14:15:23.476Z,92.62
2022-07-26T14:17:52.444Z,93.08
2022-07-26T14:20:21.285Z,93.74
2022-07-26T14:22:53.647Z,93.93
2022-07-26T14:25:26.546Z,93.94
2022-07-26T14:27:56.059Z,93.94
2022-07-26T14:30:24.189Z,93.74
2022-07-26T14:32:52.053Z,93.83
2022-07-26T14:35:20.012Z,93.84
2022-07-26T14:37:48.390Z,93.70
2022-07-26T14:40:17.265Z,93.42
2022-07-26T14:42:46.297Z,93.58
2022-07-26T14:45:15.401Z,93.46
2022-07-26T14:47:43.489Z,93.23
2022-07-26T14:50:12.659Z,92.75
2022-07-26T14:52:50.037Z,92.82
2022-07-26T14:55:23.094Z,92.47
2022-07-26T14:57:52.679Z,92.31
2022-07-26T15:00:20.613Z,92.08
2022-07-26T15:02:49.548Z,91.64
2022-07-26T15:05:18.416Z,91.12
2022-07-26T15:07:46.455Z,90.33
2022-07-26T15:10:15.267Z,89.76
2022-07-26T15:12:43.906Z,88.94
2022-07-26T15:15:12.374Z,88.52
2022-07-26T15:17:40.147Z,88.17
2022-07-26T15:20:08.409Z,88.27
2022-07-26T15:22:36.625Z,87.72
2022-07-26T15:25:04.955Z,87.54
2022-07-26T15:27:32.789Z,87.39
2022-07-26T15:30:05.272Z,87.46
2022-07-26T15:32:36.884Z,87.26
2022-07-26T15:35:05.706Z,87.18
2022-07-26T15:37:34.182Z,87.07
2022-07-26T15:40:02.523Z,87.07
2022-07-26T15:42:33.595Z,86.60
2022-07-26T15:45:02.638Z,86.44
2022-07-26T15:47:53.895Z,86.21
2022-07-26T15:50:22.823Z,85.44
2022-07-26T15:52:50.810Z,85.85
2022-07-26T15:55:19.786Z,85.82
2022-07-26T15:57:47.954Z,85.41
2022-07-26T16:00:17.035Z,85.81
2022-07-26T16:02:44.890Z,85.67
2022-07-26T16:05:13.183Z,85.50
2022-07-26T16:07:42.617Z,85.81
2022-07-26T16:10:12.701Z,85.59
2022-07-26T16:12:41.611Z,85.59
2022-07-26T16:15:11.181Z,85.70
2022-07-26T16:17:39.284Z,86.59
2022-07-26T16:20:07.842Z,87.05
2022-07-26T16:22:36.191Z,86.94
2022-07-26T16:25:05.968Z,86.35
2022-07-26T16:27:33.723Z,85.57
2022-07-26T16:30:01.611Z,85.75
2022-07-26T16:32:29.529Z,85.97
2022-07-26T16:34:57.249Z,86.03
2022-07-26T16:37:25.142Z,86.22
2022-07-26T16:39:53.466Z,86.80
2022-07-26T16:42:21.562Z,87.38
2022-07-26T16:44:49.607Z,88.29
2022-07-26T16:47:17.404Z,88.77
2022-07-26T16:49:45.091Z,88.70
2022-07-26T16:52:13.007Z,88.64
2022-07-26T16:54:41.693Z,88.25
2022-07-26T16:57:09.704Z,87.79
2022-07-26T16:59:37.751Z,87.84
2022-07-26T17:02:05.620Z,87.51
2022-07-26T17:04:33.362Z,86.37
2022-07-26T17:07:23.860Z,86.26
2022-07-26T17:09:49.197Z,86.34
2022-07-26T17:12:17.299Z,86.85
2022-07-26T17:14:45.015Z,87.61
2022-07-26T17:17:12.772Z,88.36
2022-07-26T17:19:40.767Z,89.19
2022-07-26T17:22:08.504Z,89.92
2022-07-26T17:24:36.355Z,90.17
2022-07-26T17:27:04.683Z,90.34
2022-07-26T17:29:32.502Z,90.68
2022-07-26T17:32:00.192Z,91.57
2022-07-26T17:34:28.138Z,92.34
2022-07-26T17:37:01.537Z,93.12
2022-07-26T17:39:52.483Z,93.72
2022-07-26T17:42:18.421Z,93.99
2022-07-26T17:44:46.296Z,94.22
2022-07-26T17:47:28.595Z,94.69
2022-07-26T17:52:51.770Z,95.38
2022-07-26T17:55:20.383Z,96.07
2022-07-26T17:57:49.649Z,96.61
2022-07-26T18:00:21.186Z,96.77
2022-07-26T18:02:49.321Z,97.13
2022-07-26T18:05:18.384Z,97.30
2022-07-26T18:07:46.302Z,97.60
2022-07-26T18:10:16.606Z,97.66
2022-07-26T18:12:44.472Z,98.09
2022-07-26T18:15:12.499Z,98.49
2022-07-26T18:17:40.834Z,98.79
2022-07-26T18:20:09.186Z,99.01
2022-07-26T18:22:36.879Z,99.29
2022-07-26T18:25:05.612Z,99.53
2022-07-26T18:27:33.898Z,99.62
2022-07-26T18:30:02.043Z,99.94
2022-07-26T18:32:30.027Z,100.00
2022-07-26T18:34:57.888Z,100.00
2022-07-26T18:37:25.805Z,100.00
2022-07-26T18:39:57.550Z,100.00
2022-07-26T18:42:26.216Z,100.00
2022-07-26T18:44:53.978Z,100.00
2022-07-26T18:47:22.061Z,100.00
2022-07-26T18:49:50.190Z,100.00
2022-07-26T18:52:28.873Z,100.00
2022-07-26T18:55:07.415Z,100.00
2022-07-26T18:57:38.904Z,100.00
2022-07-26T19:00:18.830Z,100.00
2022-07-26T19:02:47.318Z,100.00
2022-07-26T19:05:16.559Z,100.00
2022-07-26T19:07:45.103Z,100.00
2022-07-26T19:10:13.486Z,100.00
2022-07-26T19:12:42.318Z,100.00
2022-07-26T19:15:10.263Z,100.00
2022-07-26T19:17:38.466Z,100.00
2022-07-26T19:20:07.770Z,100.00
2022-07-26T19:22:36.902Z,100.00
2022-07-26T19:25:08.446Z,100.00
2022-07-26T19:27:37.134Z,100.00
2022-07-26T19:30:07.615Z,100.00
2022-07-26T19:32:36.101Z,100.00
2022-07-26T19:35:05.493Z,100.00
2022-07-26T19:37:33.344Z,100.00
2022-07-26T19:40:01.249Z,100.00
2022-07-26T19:42:32.511Z,100.00
2022-07-26T19:45:00.747Z,100.00
2022-07-26T19:47:29.855Z,100.00
2022-07-26T19:49:58.791Z,100.00
2022-07-26T19:52:26.726Z,100.00
2022-07-26T19:54:54.557Z,100.00
2022-07-26T19:57:22.936Z,100.00
2022-07-26T19:59:51.079Z,100.00
2022-07-26T20:02:19.220Z,100.00
2022-07-26T20:04:47.400Z,100.00
2022-07-26T20:07:19.424Z,100.00
2022-07-26T20:09:49.669Z,100.00
2022-07-26T20:12:18.984Z,100.00
2022-07-26T20:14:47.092Z,100.00
2022-07-26T20:17:15.721Z,100.00
2022-07-26T20:19:43.829Z,100.00
2022-07-26T20:22:12.019Z,100.00
2022-07-26T20:24:39.941Z,100.00
2022-07-26T20:27:08.214Z,100.00
2022-07-26T20:29:36.263Z,100.00
2022-07-26T20:32:04.166Z,100.00
2022-07-26T20:34:32.102Z,100.00
2022-07-26T20:36:59.812Z,100.00
2022-07-26T20:39:27.924Z,100.00
2022-07-26T20:41:57.216Z,100.00
2022-07-26T20:44:28.190Z,100.00
2022-07-26T20:46:56.504Z,100.00
2022-07-26T20:49:24.471Z,100.00
2022-07-26T20:51:52.270Z,100.00
2022-07-26T20:54:20.145Z,100.00
2022-07-26T20:56:48.170Z,100.00
2022-07-26T20:59:16.023Z,100.00
2022-07-26T21:01:44.093Z,100.00
2022-07-26T21:04:12.434Z,100.00
2022-07-26T21:06:40.164Z,100.00
2022-07-26T21:09:09.542Z,100.00
2022-07-26T21:11:39.322Z,100.00
2022-07-26T21:14:07.255Z,100.00
2022-07-26T21:16:35.338Z,100.00
2022-07-26T21:19:04.458Z,100.00
2022-07-26T21:21:34.196Z,100.00
2022-07-26T21:24:02.044Z,100.00
2022-07-26T21:26:30.594Z,100.00
2022-07-26T21:28:58.435Z,100.00
2022-07-26T21:31:26.677Z,100.00
2022-07-26T21:33:54.739Z,100.00
2022-07-26T21:36:22.438Z,100.00
2022-07-26T21:38:50.229Z,100.00
2022-07-26T21:41:18.109Z,100.00
2022-07-26T21:43:45.766Z,100.00
2022-07-26T21:46:14.541Z,100.00
2022-07-26T21:48:42.666Z,100.00
2022-07-26T21:51:10.567Z,100.00
2022-07-26T21:53:38.402Z,100.00
2022-07-26T21:56:06.349Z,100.00
2022-07-26T21:58:36.972Z,100.00
2022-07-26T22:01:07.111Z,100.00
2022-07-26T22:03:36.688Z,100.00
2022-07-26T22:06:05.335Z,100.00
2022-07-26T22:08:33.470Z,100.00
2022-07-26T22:11:01.996Z,100.00
2022-07-26T22:13:29.736Z,100.00
2022-07-26T22:15:57.666Z,100.00
2022-07-26T22:18:25.750Z,100.00
2022-07-26T22:20:54.036Z,100.00
2022-07-26T22:23:31.774Z,100.00
2022-07-26T22:26:04.108Z,100.00
2022-07-26T22:28:33.815Z,100.00
2022-07-26T22:31:01.879Z,100.00
2022-07-26T22:33:29.663Z,100.00
2022-07-26T22:35:57.474Z,100.00
2022-07-26T22:38:25.662Z,100.00
2022-07-26T22:40:53.613Z,100.00
2022-07-26T22:43:21.601Z,100.00
2022-07-26T22:45:49.639Z,100.00
2022-07-26T22:48:17.543Z,100.00
2022-07-26T22:50:45.398Z,100.00
2022-07-26T22:53:13.429Z,100.00
2022-07-26T22:55:41.192Z,100.00
2022-07-26T22:58:09.038Z,100.00
2022-07-26T23:00:37.257Z,100.00
2022-07-26T23:03:10.340Z,100.00
2022-07-26T23:05:48.968Z,100.00
2022-07-26T23:11:06.089Z,100.00
2022-07-26T23:13:34.388Z,100.00
2022-07-26T23:16:02.383Z,100.00
2022-07-26T23:18:31.591Z,100.00
2022-07-26T23:20:59.697Z,100.00
2022-07-26T23:23:29.231Z,100.00
2022-07-26T23:25:59.182Z,100.00
2022-07-26T23:28:37.073Z,100.00
2022-07-26T23:31:08.654Z,100.00
2022-07-26T23:33:52.408Z,100.00
2022-07-26T23:36:27.474Z,100.00
2022-07-26T23:38:57.028Z,100.00
2022-07-26T23:41:26.086Z,100.00
2022-07-26T23:43:54.738Z,100.00
2022-07-26T23:46:23.016Z,100.00
2022-07-26T23:48:51.600Z,100.00
2022-07-26T23:51:20.219Z,100.00
2022-07-26T23:53:48.527Z,100.00
2022-07-26T23:56:17.121Z,100.00
2022-07-26T23:58:45.103Z,100.00
